Sawyer County Airport
KHYR : now visible

Airfield :











YOU CAN JOIN US ON...

 
LOGIN :

Register | Disclaimer

   EN    FR    IT 

 









Legend :    VFR   Marginal VFR   IFR   Intensive IFR   Very Intensive IFR
Visi :
Ceiling :
>= 8 km
>= 3000ft
5 to 8 km
1000 to 3000 ft
1500m to 5 km
500 to 1000 ft
800 to 1500m
200 to 500 ft
< 800m
< 200 ft
Symbols :   Thunderstorms  Fog  Heavy snow  Heavy precipitations  Wind > 20 kt






- Airport Elevation : 1216 ft


KHYR - Sawyer County

CURRENT METAR :
  • 050753Z AUTO 18005KT 10SM CLR 20/16 A3000 RMK AO2 SLP153 T02000156

EXPIRED METARs :
  • 050653Z AUTO 19006KT 10SM CLR 21/16 A3001 RMK AO2 SLP157 T02060156
  • 050553Z AUTO 20006KT 10SM CLR 20/16 A3002 RMK AO2 SLP162 T02000156 10250 20194 402780117 58005

TAF KHYR
Valid from the 05 at 06:00 until the 06 at 06:00 UTC


050526Z 0506/0606 19005KT 6SM FU FEW070 SCT250
FM051100 19006KT P6SM SCT070 BKN150
FM051300 19007G17KT P6SM VCSH SCT060 BKN100
FM051900 19010G18KT P6SM VCSH SCT023 BKN029
FM060200 18006KT P6SM SCT021 BKN026
FM060500 VRB04KT P6SM SCT010 BKN022
KZMP FIR / North America



MET'MAP, your aeronautical weather chart ! - Copyright ORBIFLY December 2007 - Disclaimer

ORBIFLY MET'MAP TEAM :

Programming & Development : Alexandra Zaïnal
Concept & original design : Baudouin d'Aumeries
Assistance for programming : Marc-Olivier Méhu
Technical & hardware support : Manuel Goepfert

Contact : metmap@orbifly.com




SOURCES & CREDITS :

   NOAA       Earth
Advisory